Jhang Weather



Jhang's Current Weather

Temprature 24.78o broken clouds

broken clouds

Rain: 0 %

Min Temprature24.78o
Max Temprature24.78o
Humidity73
Wind Speed0.47 m/h
Sun Rise05:59:43
Sun Set18:01:37
Current Time: 26-Sep-2022 08:06:43
Lat/Lon: 33.6748, 72.6963




Jhang's Geo Location



Jhang's Weather Forecast

Time Overall Temp Min Temp Max Temp Humidity Wind Speed Rain
26-Sep-2022 (Mon)
11:00:00 broken clouds 25.750 25.750 27.680 67 1.4 m/h 0 %
14:00:00 few clouds 28.290 28.290 30.040 56 2.08 m/h 0 %
17:00:00 clear sky 29.630 29.630 29.630 51 1.43 m/h 0 %
20:00:00 clear sky 26.220 26.220 26.220 61 1.27 m/h 0 %
23:00:00 clear sky 24.970 24.970 24.970 65 1.44 m/h 0 %
27-Sep-2022 (Tue)
02:00:00 clear sky 24.080 24.080 24.080 66 1.46 m/h 0 %
05:00:00 clear sky 23.290 23.290 23.290 68 1.87 m/h 0 %
08:00:00 clear sky 25.680 25.680 25.680 60 1.48 m/h 0 %
11:00:00 clear sky 29.510 29.510 29.510 49 1 m/h 0 %
14:00:00 clear sky 31.630 31.630 31.630 41 1.02 m/h 0 %
17:00:00 clear sky 31.440 31.440 31.440 44 0.52 m/h 0 %
20:00:00 clear sky 27.480 27.480 27.480 53 2.21 m/h 0 %
23:00:00 clear sky 25.900 25.900 25.900 60 2.91 m/h 0 %
28-Sep-2022 (Wed)
02:00:00 clear sky 24.810 24.810 24.810 64 2.52 m/h 0 %
05:00:00 clear sky 23.890 23.890 23.890 66 2.41 m/h 0 %
08:00:00 clear sky 26.030 26.030 26.030 62 2.38 m/h 0 %
11:00:00 clear sky 30.120 30.120 30.120 49 2.04 m/h 0 %
14:00:00 clear sky 32.150 32.150 32.150 40 1.08 m/h 0 %
17:00:00 clear sky 32.050 32.050 32.050 43 0.4 m/h 0 %
20:00:00 clear sky 28.000 28.000 28.000 51 2.28 m/h 0 %
23:00:00 clear sky 26.460 26.460 26.460 58 2.93 m/h 0 %
29-Sep-2022 (Thu)
02:00:00 light rain 24.740 24.740 24.740 63 2.3 m/h 36 %
05:00:00 light rain 22.680 22.680 22.680 71 0.95 m/h 119 %
08:00:00 light rain 24.680 24.680 24.680 62 1.63 m/h 138 %
11:00:00 light rain 29.210 29.210 29.210 47 0.8 m/h 24 %
14:00:00 clear sky 31.820 31.820 31.820 40 0.41 m/h 0 %
17:00:00 clear sky 31.560 31.560 31.560 44 1.06 m/h 0 %
20:00:00 clear sky 27.480 27.480 27.480 52 2.18 m/h 0 %
23:00:00 clear sky 25.990 25.990 25.990 57 2.44 m/h 0 %
30-Sep-2022 (Fri)
02:00:00 clear sky 24.850 24.850 24.850 59 2.27 m/h 0 %
05:00:00 clear sky 23.770 23.770 23.770 61 0.62 m/h 0 %
08:00:00 few clouds 26.160 26.160 26.160 53 1.74 m/h 0 %
11:00:00 clear sky 30.390 30.390 30.390 42 0.46 m/h 0 %
14:00:00 clear sky 32.700 32.700 32.700 35 1.16 m/h 0 %
17:00:00 clear sky 32.240 32.240 32.240 41 0.34 m/h 0 %
20:00:00 clear sky 28.010 28.010 28.010 47 2.42 m/h 0 %
23:00:00 clear sky 26.390 26.390 26.390 52 2.51 m/h 0 %
01-Oct-2022 (Sat)
02:00:00 few clouds 25.200 25.200 25.200 55 1.86 m/h 0 %
05:00:00 scattered clouds 25.320 25.320 25.320 54 1.37 m/h 0 %
08:00:00 clear sky 26.790 26.790 26.790 51 1.92 m/h 0 %

Famous Cities (61)